Forside
METAR-TAF:

METAR-TAF

Lufthavne :

Benton Harbor, Michigan, USA

Breddekreds: 42-07-43N, længdekreds: 086-25-42W, højde: 196 m

Aktuelle vejr

Denne rapport blev lavet for 23 minutter siden, kl. 03:40 UTC
Vind 15 kt fra østsydøst med vindstød på up til 27 kt
Temperatur -3°C
Fugtighed 80%
Tryk 1026 hPa
Sigt: 2.8 km
Overskyet i en højde af 3400 ft
let sne

METAR: KBEH 180340Z AUTO 12015G27KT 1 3/4SM -SN OVC034 M03/M06 A3031 RMK AO2 PK WND 13027/0331 P0001 T10281056

Tid: 23:03 (04:03 UTC)


TAF: fraværende

Vejrobservationer og prognoser fra mere end 4000 lufthavne (METAR og TAF).

De gule og røde prikker repræsenterer de meteorologiske stationer.

Flyt musen over at se navnet på stationen.

Så klik over at se vejr observationer og prognoser.

At skifte det kort: Klik på de grønne knapper med et sort kors for at zoome ind; på den grønne knap med en bindestreg for at zoome ud; eller på de grønne pile for tilstødende kort.


METAR-TAF: